Time;durP1;ratioP1;P1;durP2;ratioP2;P2;SDS_P1;SDS_P2;PMS_P1;PMS_P2;Temp;Humidity;BMP_temperature;BMP_pressure;BME280_temperature;BME280_humidity;BME280_pressure;Samples;Min_cycle;Max_cycle;Signal;HPM_P1;HPM_P2
2020/12/12 00:01:41;;;;;;;29.27;17.48;;;;;;;2.30;73.36;93820.22;5033028;28;20407;-45
2020/12/12 00:04:07;;;;;;;29.63;17.98;;;;;;;2.39;73.31;93828.13;5033184;28;20491;-44
2020/12/12 00:06:34;;;;;;;27.90;17.17;;;;;;;2.29;73.59;93826.66;5032817;28;20059;-46
2020/12/12 00:09:00;;;;;;;30.75;18.10;;;;;;;2.24;73.74;93826.09;5032848;28;20053;-47
2020/12/12 00:11:26;;;;;;;29.20;17.88;;;;;;;2.24;73.65;93828.75;5032354;28;20054;-45
2020/12/12 00:13:53;;;;;;;31.95;18.35;;;;;;;2.22;73.78;93828.31;5033319;28;20073;-45
2020/12/12 00:16:19;;;;;;;30.55;16.88;;;;;;;2.17;73.78;93815.97;5031023;28;20132;-46
2020/12/12 00:18:46;;;;;;;27.30;16.95;;;;;;;2.17;73.79;93812.53;5033491;28;20466;-45
2020/12/12 00:21:13;;;;;;;31.58;17.10;;;;;;;2.15;73.99;93820.09;5033428;28;20129;-49
2020/12/12 00:23:40;;;;;;;27.60;16.77;;;;;;;2.14;73.83;93807.84;5033128;28;20053;-45
2020/12/12 00:26:06;;;;;;;28.83;17.02;;;;;;;2.14;74.15;93821.94;5032265;28;20232;-51
2020/12/12 00:28:34;;;;;;;27.98;16.52;;;;;;;2.20;74.20;93817.19;5033108;28;20045;-47
2020/12/12 00:31:01;;;;;;;27.65;16.83;;;;;;;2.17;73.99;93815.19;5033227;28;20056;-45
2020/12/12 00:33:27;;;;;;;30.13;17.67;;;;;;;2.29;73.92;93812.53;5032875;28;20055;-47
2020/12/12 00:35:54;;;;;;;31.75;18.58;;;;;;;2.29;73.13;93796.53;5032376;28;20050;-45
2020/12/12 00:38:21;;;;;;;28.35;16.85;;;;;;;2.38;73.09;93813.22;5033274;28;20141;-46
2020/12/12 00:40:56;;;;;;;29.80;17.88;;;;;;;2.36;73.35;93810.09;5032913;28;20128;-45
2020/12/12 00:43:26;;;;;;;28.58;17.25;;;;;;;2.26;73.59;93808.66;5033016;28;20571;-47
2020/12/12 00:45:53;;;;;;;29.20;17.70;;;;;;;2.24;73.75;93804.75;5032156;28;20575;-52
2020/12/12 00:48:19;;;;;;;32.65;18.33;;;;;;;2.23;73.91;93803.19;5031637;28;20046;-45
2020/12/12 00:50:49;;;;;;;28.70;16.63;;;;;;;2.24;73.77;93796.75;5031866;28;20107;-45
2020/12/12 00:53:16;;;;;;;27.10;16.83;;;;;;;2.26;73.41;93805.19;5031417;28;20572;-44
2020/12/12 00:55:42;;;;;;;26.98;16.08;;;;;;;2.11;73.99;93798.59;4998201;28;20056;-45
2020/12/12 00:58:09;;;;;;;28.48;16.33;;;;;;;2.04;74.53;93796.47;5031589;28;20423;-45
2020/12/12 01:00:36;;;;;;;25.00;15.63;;;;;;;2.13;74.35;93792.97;5031494;28;20072;-45
2020/12/12 01:03:03;;;;;;;25.92;15.55;;;;;;;2.12;74.37;93802.84;5031402;28;20128;-46
2020/12/12 01:05:33;;;;;;;27.20;16.15;;;;;;;2.08;74.33;93786.72;5031933;28;20570;-45
2020/12/12 01:08:00;;;;;;;28.33;16.70;;;;;;;2.13;74.34;93803.63;5032145;28;20045;-45
2020/12/12 01:10:26;;;;;;;25.23;14.80;;;;;;;2.15;74.21;93798.75;5032333;28;20077;-47
2020/12/12 01:12:53;;;;;;;25.30;16.35;;;;;;;2.08;74.01;93789.41;5032587;28;20057;-46
2020/12/12 01:15:20;;;;;;;28.83;16.63;;;;;;;2.20;74.05;93801.97;5031555;28;20422;-45
2020/12/12 01:17:46;;;;;;;26.10;16.25;;;;;;;2.28;73.95;93803.78;5032032;28;20100;-47
2020/12/12 01:20:14;;;;;;;28.15;17.80;;;;;;;2.28;73.62;93792.31;5031962;28;20152;-46
2020/12/12 01:22:40;;;;;;;28.05;16.75;;;;;;;2.42;73.38;93808.00;5032097;28;20133;-47
2020/12/12 01:25:07;;;;;;;28.00;16.17;;;;;;;2.56;73.17;93809.22;5031863;28;20041;-48
2020/12/12 01:27:33;;;;;;;27.73;16.92;;;;;;;2.73;72.28;93816.25;5030554;28;20050;-45
2020/12/12 01:29:59;;;;;;;31.05;18.25;;;;;;;2.84;71.98;93819.25;5031708;28;20509;-46
2020/12/12 01:32:26;;;;;;;30.67;17.27;;;;;;;2.91;71.51;93818.69;5031834;28;20075;-44
2020/12/12 01:34:52;;;;;;;28.08;16.35;;;;;;;2.95;71.58;93817.69;5031828;28;20048;-46
2020/12/12 01:37:23;;;;;;;26.13;15.65;;;;;;;2.98;71.50;93814.34;5030946;28;20080;-44
2020/12/12 01:39:49;;;;;;;27.60;16.05;;;;;;;3.00;71.08;93809.44;5031551;28;20561;-48
2020/12/12 01:42:15;;;;;;;26.77;16.27;;;;;;;2.83;71.71;93807.03;5032037;28;20053;-45
2020/12/12 01:44:42;;;;;;;27.10;15.88;;;;;;;2.90;71.49;93801.91;5031431;28;20052;-46
2020/12/12 01:47:08;;;;;;;25.25;15.20;;;;;;;2.94;71.30;93792.09;5030783;28;20057;-45
2020/12/12 01:49:35;;;;;;;26.23;15.68;;;;;;;2.92;71.39;93788.97;5031474;28;20107;-48
2020/12/12 01:52:04;;;;;;;28.23;17.20;;;;;;;2.93;71.51;93795.88;5031601;28;20053;-44
2020/12/12 01:54:31;;;;;;;27.05;16.38;;;;;;;2.95;71.38;93793.63;5031799;28;20183;-46
2020/12/12 01:57:03;;;;;;;24.95;16.17;;;;;;;2.95;71.31;93790.97;5030653;28;20080;-49
2020/12/12 01:59:30;;;;;;;28.13;15.45;;;;;;;3.00;71.28;93784.63;5031527;28;20084;-48
2020/12/12 02:01:58;;;;;;;24.83;15.15;;;;;;;2.99;71.11;93791.88;5031593;28;20060;-45
2020/12/12 02:04:27;;;;;;;25.33;15.30;;;;;;;2.98;70.83;93778.84;5031382;28;20093;-46
2020/12/12 02:06:54;;;;;;;25.25;15.23;;;;;;;2.96;70.76;93773.84;5030441;28;20049;-46
2020/12/12 02:09:21;;;;;;;26.48;16.17;;;;;;;2.93;70.93;93779.84;5031185;28;20052;-44
2020/12/12 02:11:48;;;;;;;25.63;16.20;;;;;;;2.96;70.97;93779.19;5031323;28;20129;-45
2020/12/12 02:14:14;;;;;;;24.15;15.50;;;;;;;2.90;71.11;93785.09;5031120;28;20045;-45
2020/12/12 02:16:52;;;;;;;25.65;14.23;;;;;;;2.69;72.05;93779.88;5030481;28;20073;-46
2020/12/12 02:19:18;;;;;;;24.48;15.98;;;;;;;2.79;71.66;93776.75;5031130;28;20053;-44
2020/12/12 02:22:06;;;;;;;24.10;15.23;;;;;;;2.89;71.34;93773.59;5031301;28;20503;-44
2020/12/12 02:24:35;;;;;;;23.10;15.27;;;;;;;2.70;71.30;93741.38;5031145;28;20050;-47
2020/12/12 02:27:06;;;;;;;25.58;15.70;;;;;;;2.14;72.06;93699.25;5030402;28;20506;-45
2020/12/12 02:29:48;;;;;;;24.08;14.65;;;;;;;2.40;72.74;93768.28;5030985;28;20521;-46
2020/12/12 02:32:15;;;;;;;22.35;13.80;;;;;;;2.38;72.75;93765.19;5031529;28;20046;-46
2020/12/12 02:34:42;;;;;;;24.70;15.13;;;;;;;2.48;72.62;93780.00;5031454;28;20128;-46
2020/12/12 02:37:08;;;;;;;24.33;15.13;;;;;;;2.60;72.08;93787.19;5030415;28;20148;-45
2020/12/12 02:39:35;;;;;;;23.13;15.25;;;;;;;2.61;71.79;93776.22;5034158;28;20054;-44
2020/12/12 02:42:02;;;;;;;22.67;14.73;;;;;;;2.57;71.93;93783.34;5035120;28;20132;-45
2020/12/12 02:44:28;;;;;;;23.38;14.27;;;;;;;2.52;72.26;93781.66;5034889;28;20159;-44
2020/12/12 02:46:54;;;;;;;25.33;14.55;;;;;;;2.51;72.48;93784.66;5034602;28;20407;-49
2020/12/12 02:49:21;;;;;;;24.45;15.13;;;;;;;2.46;72.32;93772.31;5035041;28;20136;-46
2020/12/12 02:51:47;;;;;;;23.00;14.07;;;;;;;2.26;72.72;93754.50;5035071;28;20053;-44
2020/12/12 02:54:13;;;;;;;22.40;13.95;;;;;;;2.17;73.42;93756.50;5033631;28;20120;-45
2020/12/12 02:56:40;;;;;;;22.90;14.07;;;;;;;2.26;73.31;93757.94;5034090;28;20059;-45
2020/12/12 02:59:06;;;;;;;23.23;14.23;;;;;;;2.37;73.04;93752.94;5034894;28;20474;-44
2020/12/12 03:01:32;;;;;;;24.08;14.88;;;;;;;2.19;73.12;93741.72;5034708;28;20049;-47
2020/12/12 03:03:59;;;;;;;22.10;14.10;;;;;;;2.21;73.40;93749.38;5034897;28;20041;-47
2020/12/12 03:06:25;;;;;;;21.02;13.73;;;;;;;2.14;73.51;93760.59;5034114;28;20049;-47
2020/12/12 03:08:51;;;;;;;24.38;14.80;;;;;;;2.08;73.69;93757.38;5034411;28;20075;-44
2020/12/12 03:11:18;;;;;;;23.48;14.00;;;;;;;2.18;73.47;93755.38;5034643;28;20537;-45
2020/12/12 03:13:44;;;;;;;22.33;13.45;;;;;;;2.17;73.35;93759.16;5034601;28;20304;-44
2020/12/12 03:16:11;;;;;;;21.88;14.15;;;;;;;2.23;73.24;93765.84;5034396;28;20050;-44
2020/12/12 03:18:37;;;;;;;21.48;13.63;;;;;;;2.40;72.74;93759.50;5034717;28;20267;-45
2020/12/12 03:21:03;;;;;;;21.63;13.68;;;;;;;2.43;72.39;93770.28;5034614;28;20572;-46
2020/12/12 03:23:29;;;;;;;22.00;13.95;;;;;;;2.28;73.00;93761.06;5034257;28;20053;-46
2020/12/12 03:25:56;;;;;;;22.10;13.80;;;;;;;2.31;73.03;93764.97;5033905;28;20053;-45
2020/12/12 03:28:22;;;;;;;23.17;14.35;;;;;;;2.32;73.10;93766.53;5034749;28;20131;-45
2020/12/12 03:30:48;;;;;;;21.30;13.70;;;;;;;2.24;73.25;93757.53;5034176;28;20087;-44
2020/12/12 03:33:15;;;;;;;21.17;13.45;;;;;;;2.18;73.34;93756.19;5034399;28;20103;-45
2020/12/12 03:35:41;;;;;;;22.58;15.05;;;;;;;2.24;73.42;93754.06;5033634;28;20374;-48
2020/12/12 03:38:08;;;;;;;24.35;14.63;;;;;;;2.35;73.04;93755.19;5033808;28;20060;-46
2020/12/12 03:40:34;;;;;;;22.92;14.82;;;;;;;2.41;72.82;93756.53;5034087;28;20056;-46
2020/12/12 03:43:01;;;;;;;21.88;14.27;;;;;;;2.38;72.58;93757.19;5033909;28;20056;-45
2020/12/12 03:45:27;;;;;;;23.83;14.63;;;;;;;2.29;73.09;93751.19;5033177;28;20491;-44
2020/12/12 03:47:53;;;;;;;22.70;14.23;;;;;;;2.21;73.69;93754.72;5034144;28;20413;-45
2020/12/12 03:50:27;;;;;;;24.40;15.85;;;;;;;2.34;73.04;93749.06;5033249;28;20120;-43
2020/12/12 03:52:57;;;;;;;22.20;13.63;;;;;;;2.37;73.27;93752.16;5033743;28;20092;-45
2020/12/12 03:55:24;;;;;;;26.95;15.45;;;;;;;2.35;72.80;93749.84;5032158;28;20091;-45
2020/12/12 03:57:50;;;;;;;21.15;13.93;;;;;;;2.41;72.93;93753.84;5034006;28;20049;-45
2020/12/12 04:00:17;;;;;;;23.83;14.77;;;;;;;2.30;72.55;93742.06;5033707;28;20049;-49
2020/12/12 04:02:43;;;;;;;22.98;14.02;;;;;;;2.40;72.82;93756.84;5033723;28;20054;-45
2020/12/12 04:05:10;;;;;;;20.75;13.65;;;;;;;2.36;72.57;93747.94;5033603;28;20084;-44
2020/12/12 04:07:36;;;;;;;22.63;15.02;;;;;;;2.47;72.70;93781.88;5032951;28;20136;-46
2020/12/12 04:10:04;;;;;;;23.08;14.05;;;;;;;2.58;71.92;93772.31;5033483;28;20049;-45
2020/12/12 04:12:30;;;;;;;21.80;13.70;;;;;;;2.54;72.27;93773.31;5033944;28;20136;-45
2020/12/12 04:14:56;;;;;;;24.27;14.48;;;;;;;2.52;72.78;93762.97;5033553;28;20069;-46
2020/12/12 04:17:24;;;;;;;21.77;13.07;;;;;;;2.50;72.37;93756.41;5032733;28;20046;-46
2020/12/12 04:19:50;;;;;;;19.75;13.02;;;;;;;2.58;72.17;93764.28;5033845;28;20115;-45
2020/12/12 04:22:16;;;;;;;22.65;14.10;;;;;;;2.83;71.72;93758.16;5033340;28;20052;-45
2020/12/12 04:24:43;;;;;;;21.00;12.80;;;;;;;2.84;71.39;93762.41;5033330;28;20240;-45
2020/12/12 04:27:09;;;;;;;21.67;13.48;;;;;;;2.78;70.93;93735.91;5032807;28;20128;-48
2020/12/12 04:29:36;;;;;;;20.80;12.63;;;;;;;2.80;71.20;93762.28;5033653;28;20067;-44
2020/12/12 04:32:04;;;;;;;22.50;13.57;;;;;;;2.87;71.16;93767.84;5033448;28;20103;-44
2020/12/12 04:34:30;;;;;;;21.65;13.13;;;;;;;2.79;71.30;93774.06;5033442;28;20050;-45
2020/12/12 04:36:57;;;;;;;21.50;12.50;;;;;;;2.91;70.73;93783.97;5032501;28;20049;-46
2020/12/12 04:39:23;;;;;;;21.55;13.23;;;;;;;2.91;71.07;93775.97;5033099;28;20057;-45
2020/12/12 04:41:51;;;;;;;21.33;13.25;;;;;;;2.84;70.96;93770.41;5033144;28;20056;-50
2020/12/12 04:44:18;;;;;;;20.08;12.80;;;;;;;2.81;71.54;93777.97;5032889;28;20045;-48
2020/12/12 04:46:44;;;;;;;20.77;13.45;;;;;;;2.82;71.52;93778.75;5032247;28;20065;-45
2020/12/12 04:49:11;;;;;;;19.65;12.40;;;;;;;2.89;71.30;93773.59;5033107;28;20057;-44
2020/12/12 04:51:38;;;;;;;19.90;12.13;;;;;;;3.02;70.84;93772.50;5033117;28;20080;-44
2020/12/12 04:54:05;;;;;;;20.02;12.55;;;;;;;3.07;70.70;93771.47;5033061;28;20065;-47
2020/12/12 04:56:35;;;;;;;21.65;12.93;;;;;;;3.09;70.29;93771.94;5032343;28;20054;-47
2020/12/12 04:59:04;;;;;;;23.48;13.30;;;;;;;3.18;70.18;93766.44;5032959;28;20069;-46
2020/12/12 05:01:32;;;;;;;19.88;12.23;;;;;;;3.12;70.19;93765.91;5031993;28;20057;-47
2020/12/12 05:04:02;;;;;;;20.25;12.88;;;;;;;2.93;70.45;93766.50;5032572;28;20136;-46
2020/12/12 05:06:30;;;;;;;20.98;13.10;;;;;;;2.90;70.58;93766.41;5031929;28;20084;-46
2020/12/12 05:08:57;;;;;;;23.95;15.25;;;;;;;2.89;70.81;93757.59;5032677;28;20126;-44
2020/12/12 05:11:26;;;;;;;22.23;13.30;;;;;;;2.88;71.01;93766.72;5032684;28;20075;-49
2020/12/12 05:13:53;;;;;;;20.13;12.82;;;;;;;2.93;70.72;93749.69;5032810;28;20128;-46
2020/12/12 05:16:20;;;;;;;21.23;13.63;;;;;;;2.89;71.06;93767.50;5032529;28;20406;-45
2020/12/12 05:18:46;;;;;;;23.95;13.10;;;;;;;2.81;71.24;93764.63;5031139;28;20057;-46
2020/12/12 05:21:12;;;;;;;21.02;13.82;;;;;;;2.79;71.88;93774.06;5032520;28;20132;-49
2020/12/12 05:23:39;;;;;;;20.52;13.30;;;;;;;2.70;71.95;93779.53;5032316;28;20152;-47
2020/12/12 05:26:06;;;;;;;20.77;12.90;;;;;;;2.73;72.07;93784.22;5031560;28;20128;-45
2020/12/12 05:28:32;;;;;;;22.05;12.77;;;;;;;2.70;72.28;93797.47;5032274;28;20049;-45
2020/12/12 05:30:59;;;;;;;25.80;14.10;;;;;;;2.83;71.99;93783.00;5032039;28;20061;-44
2020/12/12 05:33:26;;;;;;;26.80;14.85;;;;;;;2.64;72.18;93774.75;5032108;28;20073;-45
2020/12/12 05:35:53;;;;;;;22.77;13.68;;;;;;;2.60;72.55;93787.19;5031213;28;20553;-47
2020/12/12 05:38:20;;;;;;;23.15;14.90;;;;;;;2.65;72.35;93782.44;5031838;28;20143;-46
2020/12/12 05:40:55;;;;;;;24.33;14.98;;;;;;;2.69;72.48;93794.00;5032202;28;20053;-45
2020/12/12 05:43:36;;;;;;;23.33;13.57;;;;;;;2.73;72.82;93799.44;5032080;28;20059;-49
2020/12/12 05:46:03;;;;;;;25.73;15.10;;;;;;;2.73;71.95;93796.75;5031146;28;20077;-45
2020/12/12 05:48:30;;;;;;;26.45;14.98;;;;;;;2.67;72.99;93803.47;5031935;28;20049;-45
2020/12/12 05:50:57;;;;;;;25.27;15.38;;;;;;;2.63;72.43;93799.88;5031784;28;20049;-48
2020/12/12 05:53:24;;;;;;;25.92;14.68;;;;;;;2.54;73.15;93800.78;5031817;28;20055;-49
2020/12/12 05:55:55;;;;;;;23.90;14.23;;;;;;;2.66;72.55;93807.22;5031011;28;20052;-47
2020/12/12 05:58:23;;;;;;;26.33;15.02;;;;;;;2.66;72.19;93805.34;5032323;28;20056;-44
2020/12/12 06:00:50;;;;;;;25.40;15.02;;;;;;;2.62;71.78;93811.69;5031700;28;20065;-45
2020/12/12 06:03:32;;;;;;;25.30;15.50;;;;;;;2.72;72.69;93821.91;5031510;28;20327;-45
2020/12/12 06:06:05;;;;;;;24.02;14.40;;;;;;;2.69;71.94;93814.56;5030743;28;20076;-48
2020/12/12 06:08:35;;;;;;;;;;;;;;;2.64;72.22;93825.50;5032153;28;20401;-44
2020/12/12 06:11:05;;;;;;;26.38;15.20;;;;;;;2.61;72.81;93816.25;5031587;28;19920;-44
2020/12/12 06:13:36;;;;;;;23.58;14.18;;;;;;;2.68;72.55;93824.47;5031240;28;20057;-45
2020/12/12 06:16:07;;;;;;;24.55;15.48;;;;;;;2.68;73.24;93824.47;5030760;28;20473;-45
2020/12/12 06:18:37;;;;;;;26.48;16.08;;;;;;;2.84;71.99;93826.50;5031140;28;20049;-48
2020/12/12 06:21:08;;;;;;;27.83;15.90;;;;;;;2.78;72.10;93826.69;5031187;28;20605;-45
2020/12/12 06:23:38;;;;;;;25.10;14.75;;;;;;;2.77;71.76;93835.06;5031376;28;20103;-47
2020/12/12 06:26:08;;;;;;;23.90;14.30;;;;;;;2.47;72.82;93826.47;5030617;28;20144;-45
2020/12/12 06:28:41;;;;;;;26.25;15.60;;;;;;;2.65;72.80;93827.03;5031363;28;20045;-50
2020/12/12 06:31:13;;;;;;;23.95;14.35;;;;;;;2.84;72.32;93832.59;5031199;28;20103;-48
2020/12/12 06:33:50;;;;;;;27.08;15.15;;;;;;;2.81;72.27;93830.59;5031802;28;20137;-44
2020/12/12 06:36:28;;;;;;;26.83;15.98;;;;;;;2.94;72.34;93844.72;5031138;28;20141;-50
2020/12/12 06:39:16;;;;;;;27.42;15.07;;;;;;;3.02;71.98;93839.28;5031202;28;20499;-45
2020/12/12 06:41:42;;;;;;;25.13;14.52;;;;;;;2.98;71.74;93845.63;5031208;28;20491;-45
2020/12/12 06:44:10;;;;;;;22.05;14.13;;;;;;;2.96;71.63;93843.28;5031335;28;20119;-47
2020/12/12 06:46:54;;;;;;;26.98;16.08;;;;;;;2.87;72.58;93845.28;5030450;28;20582;-49
2020/12/12 06:49:23;;;;;;;25.23;14.43;;;;;;;2.84;72.59;93851.31;5031261;28;20060;-45
2020/12/12 06:51:51;;;;;;;22.85;14.00;;;;;;;2.96;71.71;93848.63;5031121;28;20132;-46
2020/12/12 06:54:21;;;;;;;23.58;14.40;;;;;;;2.98;71.94;93849.06;5030695;28;20076;-46
2020/12/12 06:56:48;;;;;;;25.67;15.75;;;;;;;2.98;72.07;93851.72;5030096;28;20049;-45
2020/12/12 06:59:37;;;;;;;22.02;13.98;;;;;;;3.08;71.83;93853.19;5030960;28;20442;-46
2020/12/12 07:02:06;;;;;;;23.42;14.65;;;;;;;3.15;71.72;93866.78;5030785;28;20507;-46
2020/12/12 07:04:36;;;;;;;25.90;14.88;;;;;;;3.07;71.82;93870.31;5030584;28;20407;-44
2020/12/12 07:07:08;;;;;;;24.27;15.98;;;;;;;3.13;71.79;93874.34;5029878;28;20054;-48
2020/12/12 07:09:35;;;;;;;24.45;14.65;;;;;;;3.04;72.21;93871.78;5031003;28;20610;-47
2020/12/12 07:12:02;;;;;;;24.27;15.40;;;;;;;3.10;72.14;93879.56;5030713;28;20085;-45
2020/12/12 07:14:29;;;;;;;23.42;14.63;;;;;;;3.09;72.00;93868.13;5030696;28;20490;-45
2020/12/12 07:17:00;;;;;;;25.58;15.82;;;;;;;3.17;72.11;93877.13;5029827;28;20084;-45
2020/12/12 07:19:29;;;;;;;28.27;16.30;;;;;;;3.16;71.85;93878.25;5030899;28;20132;-46
2020/12/12 07:21:56;;;;;;;25.73;15.35;;;;;;;3.15;71.99;93882.81;5030640;28;20132;-46
2020/12/12 07:24:23;;;;;;;25.77;15.77;;;;;;;3.25;71.83;93889.56;5030743;28;20053;-46
2020/12/12 07:26:50;;;;;;;25.85;14.95;;;;;;;3.30;71.68;93881.34;5032842;28;20060;-45
2020/12/12 07:29:16;;;;;;;24.75;14.93;;;;;;;3.27;71.64;93890.03;5034341;28;20065;-48
2020/12/12 07:31:44;;;;;;;24.38;15.35;;;;;;;3.32;71.29;93879.13;5034316;28;20399;-47
2020/12/12 07:34:10;;;;;;;23.50;14.55;;;;;;;3.46;71.31;93892.91;5034389;28;20077;-52
2020/12/12 07:36:37;;;;;;;22.67;14.02;;;;;;;3.43;71.46;93887.44;5033372;28;20529;-48
2020/12/12 07:39:08;;;;;;;24.48;14.70;;;;;;;3.45;71.66;93893.25;5034293;28;20053;-44
2020/12/12 07:41:42;;;;;;;25.15;15.60;;;;;;;3.46;71.69;93900.91;5034146;28;20192;-45
2020/12/12 07:44:09;;;;;;;27.10;16.02;;;;;;;3.51;71.63;93897.25;5033886;28;20136;-48
2020/12/12 07:46:40;;;;;;;23.08;15.05;;;;;;;3.47;71.81;93897.13;5033518;28;20079;-47
2020/12/12 07:49:07;;;;;;;25.25;15.75;;;;;;;3.47;72.19;93905.13;5034112;28;20108;-45
2020/12/12 07:51:34;;;;;;;26.73;15.38;;;;;;;3.45;72.43;93895.91;5033778;28;20525;-45
2020/12/12 07:54:23;;;;;;;26.63;15.63;;;;;;;3.53;71.84;93904.91;5033890;28;20053;-49
2020/12/12 07:56:51;;;;;;;24.73;15.10;;;;;;;3.43;72.01;93896.25;5033075;28;20065;-45
2020/12/12 07:59:22;;;;;;;27.05;15.65;;;;;;;3.51;72.09;93897.25;5033748;28;20060;-46
2020/12/12 08:01:49;;;;;;;25.60;15.55;;;;;;;3.43;72.04;93895.47;5033990;28;20061;-47
2020/12/12 08:04:20;;;;;;;25.63;15.70;;;;;;;3.65;71.20;93912.94;5033790;28;20128;-45
2020/12/12 08:06:46;;;;;;;24.10;15.27;;;;;;;3.64;71.37;93914.03;5032477;28;20045;-45
2020/12/12 08:09:17;;;;;;;24.60;14.98;;;;;;;3.64;71.11;93920.19;5033021;28;20080;-45
2020/12/12 08:11:43;;;;;;;25.48;15.57;;;;;;;3.60;71.59;93918.50;5032364;28;20422;-49
2020/12/12 08:14:10;;;;;;;25.15;14.98;;;;;;;3.61;71.60;93922.75;5033568;28;20042;-44
2020/12/12 08:16:47;;;;;;;25.65;15.63;;;;;;;3.61;71.66;93931.53;5032926;28;20049;-45
2020/12/12 08:19:13;;;;;;;24.52;15.68;;;;;;;3.65;71.61;93931.66;5033361;28;20095;-44
2020/12/12 08:21:39;;;;;;;23.73;14.93;;;;;;;3.78;71.66;93935.09;5031859;28;20088;-44
2020/12/12 08:24:06;;;;;;;23.83;15.55;;;;;;;3.83;71.27;93943.63;5033325;28;20395;-47
2020/12/12 08:26:35;;;;;;;25.00;15.32;;;;;;;3.70;71.64;93920.69;5032548;28;20081;-44
2020/12/12 08:29:05;;;;;;;25.40;15.73;;;;;;;3.91;71.39;93928.59;5033109;28;20500;-45
2020/12/12 08:31:39;;;;;;;23.80;14.68;;;;;;;3.99;71.14;93938.34;5033078;28;20049;-44
2020/12/12 08:34:07;;;;;;;26.48;16.75;;;;;;;3.97;70.95;93927.22;5033198;28;20045;-45
2020/12/12 08:36:35;;;;;;;29.52;17.80;;;;;;;3.91;71.14;93934.72;5031685;28;20045;-45
2020/12/12 08:39:05;;;;;;;37.95;18.92;;;;;;;4.06;71.43;93943.13;5032854;28;20491;-44
2020/12/12 08:41:35;;;;;;;30.95;17.83;;;;;;;4.18;71.53;93948.44;5032983;28;20111;-50
2020/12/12 08:44:03;;;;;;;27.50;16.48;;;;;;;4.16;71.57;93956.84;5032983;28;20077;-52
2020/12/12 08:46:29;;;;;;;26.02;15.50;;;;;;;4.22;71.23;93955.47;5014558;28;20053;-52
2020/12/12 08:48:56;;;;;;;24.50;15.02;;;;;;;4.19;71.08;93963.38;5032967;28;20049;-51
2020/12/12 08:51:30;;;;;;;24.58;15.27;;;;;;;4.30;71.28;93956.44;5032557;28;20053;-51
2020/12/12 08:53:58;;;;;;;23.73;14.45;;;;;;;4.36;70.69;93949.72;5032956;28;20081;-51
2020/12/12 08:56:27;;;;;;;21.85;14.23;;;;;;;4.29;70.67;93948.75;5031962;28;20060;-52
2020/12/12 08:59:00;;;;;;;20.88;14.25;;;;;;;4.43;70.67;93954.50;5032479;28;20430;-52
2020/12/12 09:01:35;;;;;;;24.17;16.00;;;;;;;4.43;71.25;93949.94;5032509;28;20045;-53
2020/12/12 09:04:03;;;;;;;25.95;15.27;;;;;;;4.51;70.73;93950.09;5032495;28;20053;-52
2020/12/12 09:06:33;;;;;;;26.40;14.82;;;;;;;4.65;70.96;93955.88;5030589;28;20049;-52
2020/12/12 09:09:05;;;;;;;22.30;13.25;;;;;;;4.73;70.80;93957.59;5032430;28;20053;-51
2020/12/12 09:11:32;;;;;;;19.02;12.57;;;;;;;4.73;70.10;93965.63;5032173;28;20049;-51
2020/12/12 09:13:59;;;;;;;21.25;14.45;;;;;;;4.74;69.99;93966.41;5032607;28;20073;-51
2020/12/12 09:16:25;;;;;;;22.85;14.70;;;;;;;4.64;70.33;93973.03;5031857;28;20073;-50
2020/12/12 09:18:52;;;;;;;20.95;12.55;;;;;;;4.66;70.13;93970.81;5032183;28;20434;-49
2020/12/12 09:21:19;;;;;;;21.23;14.07;;;;;;;4.80;69.44;93984.56;5032133;28;20077;-50
2020/12/12 09:23:45;;;;;;;19.13;13.13;;;;;;;4.85;69.04;93970.16;5032206;28;20526;-49
2020/12/12 09:26:12;;;;;;;18.92;13.38;;;;;;;5.05;69.18;93981.75;5030994;28;20060;-52
2020/12/12 09:28:38;;;;;;;18.70;11.60;;;;;;;4.96;69.23;93984.59;5031975;28;20117;-50
2020/12/12 09:31:05;;;;;;;15.98;10.68;;;;;;;5.10;68.30;93978.81;5031947;28;20133;-50
2020/12/12 09:33:33;;;;;;;20.08;13.48;;;;;;;5.14;69.12;93990.41;5031828;28;20065;-50
2020/12/12 09:36:03;;;;;;;22.38;13.50;;;;;;;5.12;70.08;93987.28;5031010;28;20136;-49
2020/12/12 09:38:30;;;;;;;17.88;12.13;;;;;;;5.12;69.13;93974.66;5031979;28;20063;-50
2020/12/12 09:40:57;;;;;;;18.40;11.77;;;;;;;5.29;68.52;93981.59;5032060;28;20053;-48
2020/12/12 09:43:36;;;;;;;19.60;12.43;;;;;;;5.29;69.56;93984.25;5031827;28;20537;-49
2020/12/12 09:46:05;;;;;;;18.08;11.95;;;;;;;4.95;70.61;93974.22;5030762;28;20132;-49
2020/12/12 09:48:32;;;;;;;21.80;11.52;;;;;;;4.76;71.56;93999.00;5030720;28;20050;-44
2020/12/12 09:50:58;;;;;;;15.50;10.50;;;;;;;4.81;69.49;93996.06;5031462;28;20085;-45
2020/12/12 09:53:25;;;;;;;16.25;10.82;;;;;;;4.79;70.68;93995.63;5031549;28;20056;-45
2020/12/12 09:55:53;;;;;;;17.52;11.43;;;;;;;4.74;71.49;94012.72;5031098;28;20128;-53
2020/12/12 09:58:20;;;;;;;13.68;9.02;;;;;;;4.65;70.50;94006.75;5031522;28;20494;-49
2020/12/12 10:00:47;;;;;;;15.05;9.40;;;;;;;4.60;71.98;94001.63;5031468;28;20155;-51
2020/12/12 10:03:13;;;;;;;14.20;9.35;;;;;;;4.90;69.74;94005.50;5031466;28;20111;-44
2020/12/12 10:05:40;;;;;;;12.10;8.65;;;;;;;4.91;69.01;94001.72;5030606;28;20049;-52
2020/12/12 10:08:06;;;;;;;12.27;7.97;;;;;;;5.18;66.97;94009.28;5031534;28;20057;-50
2020/12/12 10:10:33;;;;;;;13.38;8.60;;;;;;;5.31;66.76;94014.22;5031394;28;20479;-49
2020/12/12 10:13:00;;;;;;;13.57;8.00;;;;;;;5.54;66.22;94017.06;5014000;28;20111;-43
2020/12/12 10:15:27;;;;;;;12.40;7.80;;;;;;;5.65;66.20;94024.59;5030393;28;20049;-46
2020/12/12 10:17:54;;;;;;;11.18;8.30;;;;;;;5.66;67.55;94016.22;5031161;28;20079;-46
2020/12/12 10:20:22;;;;;;;17.30;10.88;;;;;;;5.70;68.81;94019.75;5031130;28;20447;-53
2020/12/12 10:22:49;;;;;;;17.60;12.25;;;;;;;5.73;69.26;94002.19;5031522;28;20131;-44
2020/12/12 10:25:16;;;;;;;15.27;10.75;;;;;;;5.68;70.48;94002.44;5031115;28;20160;-49
2020/12/12 10:27:44;;;;;;;22.05;12.52;;;;;;;5.61;71.08;94006.50;5030654;28;20053;-53
2020/12/12 10:30:12;;;;;;;21.05;13.27;;;;;;;5.62;71.43;94001.91;5030939;28;20583;-50
2020/12/12 10:32:39;;;;;;;24.48;15.52;;;;;;;5.73;72.40;93996.81;5030958;28;20421;-44
2020/12/12 10:35:08;;;;;;;31.70;17.15;;;;;;;5.63;73.32;94003.47;5031097;28;20108;-52
2020/12/12 10:37:34;;;;;;;26.58;16.42;;;;;;;5.56;72.67;94009.47;5030140;28;20418;-45
2020/12/12 10:42:31;;;;;;;25.40;17.13;;;;;;;5.60;72.65;94001.50;5029687;28;20132;-46
2020/12/12 10:44:58;;;;;;;28.15;16.83;;;;;;;5.60;73.26;94002.28;5031083;28;20080;-49
2020/12/12 10:47:25;;;;;;;26.10;16.42;;;;;;;5.43;73.68;94001.81;5030112;28;20476;-49
2020/12/12 10:49:52;;;;;;;26.58;17.38;;;;;;;5.60;73.79;94007.63;5030925;28;20388;-50
2020/12/12 10:52:35;;;;;;;30.30;18.17;;;;;;;5.81;73.84;94001.97;5030812;28;20056;-52
2020/12/12 10:55:03;;;;;;;25.83;17.13;;;;;;;5.95;73.25;93998.09;5030841;28;20069;-51
2020/12/12 10:57:30;;;;;;;24.42;16.67;;;;;;;5.98;73.30;94002.75;5030224;28;20530;-55
2020/12/12 10:59:56;;;;;;;24.70;16.60;;;;;;;6.15;73.79;94007.75;5032584;28;20080;-49
2020/12/12 11:02:23;;;;;;;27.83;16.88;;;;;;;6.17;72.66;94005.47;5035165;28;20075;-47
2020/12/12 11:04:49;;;;;;;27.23;17.15;;;;;;;6.02;74.02;94004.41;5034984;28;20072;-47
2020/12/12 11:07:16;;;;;;;27.23;15.80;;;;;;;6.26;72.91;94014.13;5034145;28;20084;-46
2020/12/12 11:09:43;;;;;;;21.75;15.52;;;;;;;6.53;72.56;94023.13;5035132;28;20053;-52
2020/12/12 11:12:21;;;;;;;27.17;17.23;;;;;;;6.79;72.71;94017.13;5034599;28;20049;-53
2020/12/12 11:14:49;;;;;;;23.33;14.75;;;;;;;6.90;71.85;94019.25;5035099;28;20415;-46
2020/12/12 11:17:15;;;;;;;14.15;8.63;;;;;;;6.67;68.04;94038.00;5033873;28;20084;-48
2020/12/12 11:19:41;;;;;;;20.42;11.93;;;;;;;6.27;70.95;94029.13;5034748;28;20136;-46
2020/12/12 11:22:08;;;;;;;18.92;12.77;;;;;;;6.14;71.96;94033.03;5034560;28;20057;-51
2020/12/12 11:24:35;;;;;;;18.40;13.07;;;;;;;6.19;71.92;94050.78;5034468;28;20487;-49
2020/12/12 11:27:02;;;;;;;19.38;12.38;;;;;;;6.17;72.11;94042.28;5033639;28;20111;-44
2020/12/12 11:29:28;;;;;;;16.23;11.07;;;;;;;6.13;71.19;94055.66;5034344;28;20053;-45
2020/12/12 11:31:55;;;;;;;14.80;10.10;;;;;;;6.01;70.84;94045.81;5033598;28;20053;-45
2020/12/12 11:41:59;;;;;;;12.75;7.40;;;;;;;6.07;70.58;94054.34;5034216;28;20236;-47